To NAV CANADA Home Page Login to a new session Search on AWWS site Feedback and Comments Disclaimer Vers la page française équivalente Tips FAQ What's new on the site To the Forecasts and Observations / NOTAM section To "File a Flight Plan" website Publications and other links Update of the User's profile FIC Telephone Numbers My Weather Data Folder Route Weather Data Regional Weather Data Local Weather Data To the Forecasts and Observations / NOTAM section
Request Generated 03/04/2015 at 08:32:30 UTC . Weather information available at that time is displayed.

METAR/TAF

MONCTON/GREATER MONCTON INTL/NB    

SPECI CYQM 040820Z 13013KT 7SM -SN BKN013 OVC040 M08/M11 A2973 RMK
SC6SC2 PRESFR SLP071=
METAR CYQM 040800Z 13010G16KT 3SM -SN OVC072 M09/M11 A2975 RMK SN2AS6
/S01/ PRESFR SLP078=
METAR CYQM 040700Z 15011G19KT 1 1/2SM -SN VV018 M08/M11 A2984 RMK SN8
PRESFR SLP111=
SPECI CYQM 040648Z 16012G17KT 1 1/4SM -SN VV014 M08/M11 A2986 RMK SN8
PRESFR SLP116=
SPECI CYQM 040635Z 14008KT 2SM -SN VV016 M09/M13 A2988 RMK SN8 PRESFR
SLP124=
SPECI CYQM 040630Z 14007KT 6SM -SN OVC030 M09/M14 A2989 RMK SC8
PRESFR SLP128=
METAR CYQM 040600Z 14008KT 15SM BKN060 OVC100 M10/M15 A2994 RMK
SC5AS3 VIRGA PRESFR SLP143=

TAF CYQM 040538Z 0406/0506 15010KT P6SM OVC100 TEMPO 0406/0408 11/2SM
-SN BKN015 OVC050
FM040800 16012KT 1SM -SN VV008 TEMPO 0408/0412 3SM -SN OVC015
FM041200 18015KT P6SM OVC015 TEMPO 0412/0414 2SM -SN OVC010
FM041500 26015G25KT P6SM BKN020 TEMPO 0415/0417 BKN030
FM041700 24020G30KT P6SM BKN030
FM042000 24015G25KT P6SM FEW030
BECMG 0421/0423 24015KT
FM050500 24010KT P6SM BKN120
RMK NXT FCST BY 041200Z=
Your time UTC time
Weather data provided by Environment Canada and NAV CANADA